sensor_id;sensor_type;location;lat;lon;timestamp;P1;durP1;ratioP1;P2;durP2;ratioP2
40863;SDS011;26582;47.524;19.012;2024-03-02T00:01:14;38.72;;;21.17;;
40863;SDS011;26582;47.524;19.012;2024-03-02T00:03:42;37.88;;;22.58;;
40863;SDS011;26582;47.524;19.012;2024-03-02T00:06:08;40.05;;;21.85;;
40863;SDS011;26582;47.524;19.012;2024-03-02T00:08:38;38.08;;;22.42;;
40863;SDS011;26582;47.524;19.012;2024-03-02T00:11:05;39.53;;;21.70;;
40863;SDS011;26582;47.524;19.012;2024-03-02T00:13:31;36.53;;;21.73;;
40863;SDS011;26582;47.524;19.012;2024-03-02T00:15:59;37.20;;;21.52;;
40863;SDS011;26582;47.524;19.012;2024-03-02T00:18:27;40.45;;;22.85;;
40863;SDS011;26582;47.524;19.012;2024-03-02T00:20:57;37.70;;;21.77;;
40863;SDS011;26582;47.524;19.012;2024-03-02T00:23:26;39.33;;;22.27;;
40863;SDS011;26582;47.524;19.012;2024-03-02T00:25:57;40.47;;;22.23;;
40863;SDS011;26582;47.524;19.012;2024-03-02T00:28:25;43.45;;;22.23;;
40863;SDS011;26582;47.524;19.012;2024-03-02T00:30:56;38.63;;;21.55;;
40863;SDS011;26582;47.524;19.012;2024-03-02T00:33:25;36.90;;;21.83;;
40863;SDS011;26582;47.524;19.012;2024-03-02T00:38:20;40.30;;;21.55;;
40863;SDS011;26582;47.524;19.012;2024-03-02T00:40:47;41.47;;;21.63;;
40863;SDS011;26582;47.524;19.012;2024-03-02T00:46:19;41.92;;;22.55;;
40863;SDS011;26582;47.524;19.012;2024-03-02T00:48:53;40.97;;;21.52;;
40863;SDS011;26582;47.524;19.012;2024-03-02T00:51:21;37.13;;;21.63;;
40863;SDS011;26582;47.524;19.012;2024-03-02T00:53:49;38.53;;;22.10;;
40863;SDS011;26582;47.524;19.012;2024-03-02T00:56:16;39.92;;;23.00;;
40863;SDS011;26582;47.524;19.012;2024-03-02T00:58:43;37.75;;;21.60;;
40863;SDS011;26582;47.524;19.012;2024-03-02T01:01:11;43.80;;;25.63;;
40863;SDS011;26582;47.524;19.012;2024-03-02T01:03:38;41.13;;;22.88;;
40863;SDS011;26582;47.524;19.012;2024-03-02T01:06:06;41.67;;;23.13;;
40863;SDS011;26582;47.524;19.012;2024-03-02T01:08:34;40.38;;;23.33;;
40863;SDS011;26582;47.524;19.012;2024-03-02T01:11:00;44.63;;;24.65;;
40863;SDS011;26582;47.524;19.012;2024-03-02T01:13:27;42.58;;;23.00;;
40863;SDS011;26582;47.524;19.012;2024-03-02T01:15:54;41.13;;;22.70;;
40863;SDS011;26582;47.524;19.012;2024-03-02T01:18:22;40.72;;;23.35;;
40863;SDS011;26582;47.524;19.012;2024-03-02T01:20:49;41.17;;;23.70;;
40863;SDS011;26582;47.524;19.012;2024-03-02T01:23:18;41.20;;;23.13;;
40863;SDS011;26582;47.524;19.012;2024-03-02T01:25:45;38.15;;;22.02;;
40863;SDS011;26582;47.524;19.012;2024-03-02T01:28:12;39.78;;;22.40;;
40863;SDS011;26582;47.524;19.012;2024-03-02T01:30:39;42.58;;;23.40;;
40863;SDS011;26582;47.524;19.012;2024-03-02T01:33:05;39.15;;;21.73;;
40863;SDS011;26582;47.524;19.012;2024-03-02T01:35:33;37.28;;;21.30;;
40863;SDS011;26582;47.524;19.012;2024-03-02T01:38:01;40.53;;;21.45;;
40863;SDS011;26582;47.524;19.012;2024-03-02T01:40:31;37.05;;;21.98;;
40863;SDS011;26582;47.524;19.012;2024-03-02T01:42:58;36.35;;;20.90;;
40863;SDS011;26582;47.524;19.012;2024-03-02T01:45:26;40.17;;;21.52;;
40863;SDS011;26582;47.524;19.012;2024-03-02T01:47:53;39.65;;;21.73;;
40863;SDS011;26582;47.524;19.012;2024-03-02T01:50:24;37.20;;;20.75;;
40863;SDS011;26582;47.524;19.012;2024-03-02T01:52:53;35.63;;;20.05;;
40863;SDS011;26582;47.524;19.012;2024-03-02T01:55:20;39.05;;;20.33;;
40863;SDS011;26582;47.524;19.012;2024-03-02T01:57:47;35.63;;;20.42;;
40863;SDS011;26582;47.524;19.012;2024-03-02T02:00:16;41.65;;;22.05;;
40863;SDS011;26582;47.524;19.012;2024-03-02T02:02:43;38.83;;;21.23;;
40863;SDS011;26582;47.524;19.012;2024-03-02T02:05:10;38.67;;;19.92;;
40863;SDS011;26582;47.524;19.012;2024-03-02T02:07:37;39.28;;;20.42;;
40863;SDS011;26582;47.524;19.012;2024-03-02T02:10:05;37.10;;;21.35;;
40863;SDS011;26582;47.524;19.012;2024-03-02T02:12:32;34.53;;;20.77;;
40863;SDS011;26582;47.524;19.012;2024-03-02T02:14:59;40.40;;;21.55;;
40863;SDS011;26582;47.524;19.012;2024-03-02T02:17:26;41.97;;;20.75;;
40863;SDS011;26582;47.524;19.012;2024-03-02T02:19:52;37.15;;;21.98;;
40863;SDS011;26582;47.524;19.012;2024-03-02T02:22:24;40.55;;;21.67;;
40863;SDS011;26582;47.524;19.012;2024-03-02T02:24:50;38.80;;;21.45;;
40863;SDS011;26582;47.524;19.012;2024-03-02T02:27:17;39.38;;;21.33;;
40863;SDS011;26582;47.524;19.012;2024-03-02T02:29:44;38.80;;;22.55;;
40863;SDS011;26582;47.524;19.012;2024-03-02T02:32:10;37.55;;;21.90;;
40863;SDS011;26582;47.524;19.012;2024-03-02T02:34:37;38.08;;;21.17;;
40863;SDS011;26582;47.524;19.012;2024-03-02T02:37:04;38.80;;;21.58;;
40863;SDS011;26582;47.524;19.012;2024-03-02T02:39:32;34.95;;;20.48;;
40863;SDS011;26582;47.524;19.012;2024-03-02T02:41:59;36.40;;;20.17;;
40863;SDS011;26582;47.524;19.012;2024-03-02T02:44:28;38.47;;;20.88;;
40863;SDS011;26582;47.524;19.012;2024-03-02T02:46:54;35.42;;;20.25;;
40863;SDS011;26582;47.524;19.012;2024-03-02T02:49:21;36.83;;;19.95;;
40863;SDS011;26582;47.524;19.012;2024-03-02T02:51:47;32.33;;;18.92;;
40863;SDS011;26582;47.524;19.012;2024-03-02T02:54:14;36.33;;;20.52;;
40863;SDS011;26582;47.524;19.012;2024-03-02T02:56:42;34.83;;;19.25;;
40863;SDS011;26582;47.524;19.012;2024-03-02T02:59:09;37.47;;;19.10;;
40863;SDS011;26582;47.524;19.012;2024-03-02T03:01:36;37.33;;;18.70;;
40863;SDS011;26582;47.524;19.012;2024-03-02T03:04:02;36.00;;;19.30;;
40863;SDS011;26582;47.524;19.012;2024-03-02T03:06:30;30.30;;;18.02;;
40863;SDS011;26582;47.524;19.012;2024-03-02T03:08:56;34.15;;;19.15;;
40863;SDS011;26582;47.524;19.012;2024-03-02T03:11:23;35.33;;;19.05;;
40863;SDS011;26582;47.524;19.012;2024-03-02T03:13:52;34.08;;;20.05;;
40863;SDS011;26582;47.524;19.012;2024-03-02T03:16:20;35.60;;;18.52;;
40863;SDS011;26582;47.524;19.012;2024-03-02T03:18:46;40.30;;;19.80;;
40863;SDS011;26582;47.524;19.012;2024-03-02T03:21:15;36.55;;;19.67;;
40863;SDS011;26582;47.524;19.012;2024-03-02T03:23:41;37.35;;;20.48;;
40863;SDS011;26582;47.524;19.012;2024-03-02T03:26:08;39.80;;;20.92;;
40863;SDS011;26582;47.524;19.012;2024-03-02T03:28:35;38.55;;;20.30;;
40863;SDS011;26582;47.524;19.012;2024-03-02T03:31:03;35.03;;;19.20;;
40863;SDS011;26582;47.524;19.012;2024-03-02T03:33:30;35.75;;;19.77;;
40863;SDS011;26582;47.524;19.012;2024-03-02T03:35:56;37.75;;;19.88;;
40863;SDS011;26582;47.524;19.012;2024-03-02T03:38:23;34.63;;;19.15;;
40863;SDS011;26582;47.524;19.012;2024-03-02T03:40:50;36.13;;;18.48;;
40863;SDS011;26582;47.524;19.012;2024-03-02T03:43:16;37.38;;;19.23;;
40863;SDS011;26582;47.524;19.012;2024-03-02T03:45:43;34.40;;;18.30;;
40863;SDS011;26582;47.524;19.012;2024-03-02T03:48:11;36.28;;;18.67;;
40863;SDS011;26582;47.524;19.012;2024-03-02T03:50:38;35.30;;;19.13;;
40863;SDS011;26582;47.524;19.012;2024-03-02T03:53:04;35.03;;;18.77;;
40863;SDS011;26582;47.524;19.012;2024-03-02T03:55:31;33.08;;;17.73;;
40863;SDS011;26582;47.524;19.012;2024-03-02T03:57:58;35.25;;;17.98;;
40863;SDS011;26582;47.524;19.012;2024-03-02T04:00:25;35.60;;;19.25;;
40863;SDS011;26582;47.524;19.012;2024-03-02T04:02:51;37.92;;;19.10;;
40863;SDS011;26582;47.524;19.012;2024-03-02T04:05:19;33.80;;;19.15;;
40863;SDS011;26582;47.524;19.012;2024-03-02T04:07:46;37.88;;;19.10;;
40863;SDS011;26582;47.524;19.012;2024-03-02T04:10:13;33.88;;;18.42;;
40863;SDS011;26582;47.524;19.012;2024-03-02T04:12:41;38.13;;;19.92;;
40863;SDS011;26582;47.524;19.012;2024-03-02T04:15:09;38.25;;;19.58;;
40863;SDS011;26582;47.524;19.012;2024-03-02T04:17:35;38.70;;;19.33;;
40863;SDS011;26582;47.524;19.012;2024-03-02T04:20:02;35.95;;;19.13;;
40863;SDS011;26582;47.524;19.012;2024-03-02T04:22:32;32.63;;;18.23;;
40863;SDS011;26582;47.524;19.012;2024-03-02T04:24:59;34.90;;;18.10;;
40863;SDS011;26582;47.524;19.012;2024-03-02T04:27:25;35.28;;;18.10;;
40863;SDS011;26582;47.524;19.012;2024-03-02T04:29:52;36.78;;;18.35;;
40863;SDS011;26582;47.524;19.012;2024-03-02T04:32:19;41.55;;;18.83;;
40863;SDS011;26582;47.524;19.012;2024-03-02T04:34:45;38.78;;;18.42;;
40863;SDS011;26582;47.524;19.012;2024-03-02T04:37:12;37.47;;;19.38;;
40863;SDS011;26582;47.524;19.012;2024-03-02T04:39:41;34.33;;;17.40;;
40863;SDS011;26582;47.524;19.012;2024-03-02T04:42:07;33.50;;;16.88;;
40863;SDS011;26582;47.524;19.012;2024-03-02T04:44:34;40.13;;;18.50;;
40863;SDS011;26582;47.524;19.012;2024-03-02T04:47:01;39.65;;;19.45;;
40863;SDS011;26582;47.524;19.012;2024-03-02T04:49:28;34.97;;;19.55;;
40863;SDS011;26582;47.524;19.012;2024-03-02T04:51:55;34.42;;;18.63;;
40863;SDS011;26582;47.524;19.012;2024-03-02T04:54:22;32.47;;;17.58;;
40863;SDS011;26582;47.524;19.012;2024-03-02T04:56:50;32.03;;;17.73;;
40863;SDS011;26582;47.524;19.012;2024-03-02T04:59:16;33.58;;;17.48;;
40863;SDS011;26582;47.524;19.012;2024-03-02T05:01:43;43.33;;;19.92;;
40863;SDS011;26582;47.524;19.012;2024-03-02T05:04:10;38.30;;;19.58;;
40863;SDS011;26582;47.524;19.012;2024-03-02T05:06:38;37.13;;;19.63;;
40863;SDS011;26582;47.524;19.012;2024-03-02T05:09:05;37.72;;;17.23;;
40863;SDS011;26582;47.524;19.012;2024-03-02T05:11:32;40.05;;;19.02;;
40863;SDS011;26582;47.524;19.012;2024-03-02T05:14:18;37.78;;;19.85;;
40863;SDS011;26582;47.524;19.012;2024-03-02T05:16:44;41.58;;;20.30;;
40863;SDS011;26582;47.524;19.012;2024-03-02T05:19:11;40.67;;;19.17;;
40863;SDS011;26582;47.524;19.012;2024-03-02T05:21:37;34.35;;;18.38;;
40863;SDS011;26582;47.524;19.012;2024-03-02T05:24:04;43.33;;;18.98;;
40863;SDS011;26582;47.524;19.012;2024-03-02T05:26:31;41.30;;;20.58;;
40863;SDS011;26582;47.524;19.012;2024-03-02T05:28:58;39.03;;;18.85;;
40863;SDS011;26582;47.524;19.012;2024-03-02T05:31:26;38.80;;;18.13;;
40863;SDS011;26582;47.524;19.012;2024-03-02T05:33:52;41.25;;;20.55;;
40863;SDS011;26582;47.524;19.012;2024-03-02T05:36:19;37.88;;;18.58;;
40863;SDS011;26582;47.524;19.012;2024-03-02T05:38:46;35.13;;;19.60;;
40863;SDS011;26582;47.524;19.012;2024-03-02T05:41:12;42.58;;;19.20;;
40863;SDS011;26582;47.524;19.012;2024-03-02T05:43:39;44.25;;;20.60;;
40863;SDS011;26582;47.524;19.012;2024-03-02T05:46:06;37.80;;;19.98;;
40863;SDS011;26582;47.524;19.012;2024-03-02T05:48:34;40.38;;;19.63;;
40863;SDS011;26582;47.524;19.012;2024-03-02T05:51:00;37.13;;;19.30;;
40863;SDS011;26582;47.524;19.012;2024-03-02T05:53:27;39.75;;;19.52;;
40863;SDS011;26582;47.524;19.012;2024-03-02T05:55:54;39.00;;;20.50;;
40863;SDS011;26582;47.524;19.012;2024-03-02T05:58:21;43.00;;;19.83;;
40863;SDS011;26582;47.524;19.012;2024-03-02T06:00:57;41.90;;;19.92;;
40863;SDS011;26582;47.524;19.012;2024-03-02T06:03:24;38.63;;;18.90;;
40863;SDS011;26582;47.524;19.012;2024-03-02T06:05:52;42.38;;;20.92;;
40863;SDS011;26582;47.524;19.012;2024-03-02T06:08:19;41.17;;;20.20;;
40863;SDS011;26582;47.524;19.012;2024-03-02T06:10:45;38.38;;;20.35;;
40863;SDS011;26582;47.524;19.012;2024-03-02T06:13:12;42.40;;;20.85;;
40863;SDS011;26582;47.524;19.012;2024-03-02T06:15:39;36.72;;;19.52;;
40863;SDS011;26582;47.524;19.012;2024-03-02T06:18:05;37.33;;;18.90;;
40863;SDS011;26582;47.524;19.012;2024-03-02T06:20:33;48.15;;;22.27;;
40863;SDS011;26582;47.524;19.012;2024-03-02T06:23:01;41.30;;;20.55;;
40863;SDS011;26582;47.524;19.012;2024-03-02T06:25:28;39.03;;;20.23;;
40863;SDS011;26582;47.524;19.012;2024-03-02T06:27:54;39.42;;;19.00;;
40863;SDS011;26582;47.524;19.012;2024-03-02T06:30:21;40.78;;;21.17;;
40863;SDS011;26582;47.524;19.012;2024-03-02T06:32:48;37.28;;;19.73;;
40863;SDS011;26582;47.524;19.012;2024-03-02T06:35:14;38.30;;;19.88;;
40863;SDS011;26582;47.524;19.012;2024-03-02T06:37:41;39.60;;;20.30;;
40863;SDS011;26582;47.524;19.012;2024-03-02T06:40:09;40.75;;;20.55;;
40863;SDS011;26582;47.524;19.012;2024-03-02T06:42:36;43.17;;;20.95;;
40863;SDS011;26582;47.524;19.012;2024-03-02T06:45:03;37.72;;;20.42;;
40863;SDS011;26582;47.524;19.012;2024-03-02T06:47:31;36.03;;;20.65;;
40863;SDS011;26582;47.524;19.012;2024-03-02T06:49:57;40.28;;;20.52;;
40863;SDS011;26582;47.524;19.012;2024-03-02T06:52:24;40.20;;;20.15;;
40863;SDS011;26582;47.524;19.012;2024-03-02T06:54:51;39.20;;;20.38;;
40863;SDS011;26582;47.524;19.012;2024-03-02T06:57:19;40.47;;;21.48;;
40863;SDS011;26582;47.524;19.012;2024-03-02T06:59:46;43.38;;;21.27;;
40863;SDS011;26582;47.524;19.012;2024-03-02T07:02:15;40.13;;;21.40;;
40863;SDS011;26582;47.524;19.012;2024-03-02T07:04:41;38.42;;;21.85;;
40863;SDS011;26582;47.524;19.012;2024-03-02T07:07:10;39.80;;;21.13;;
40863;SDS011;26582;47.524;19.012;2024-03-02T07:09:36;41.55;;;21.30;;
40863;SDS011;26582;47.524;19.012;2024-03-02T07:12:03;41.88;;;20.83;;
40863;SDS011;26582;47.524;19.012;2024-03-02T07:14:31;41.92;;;20.95;;
40863;SDS011;26582;47.524;19.012;2024-03-02T07:17:12;41.05;;;20.67;;
40863;SDS011;26582;47.524;19.012;2024-03-02T07:19:39;46.25;;;24.05;;
40863;SDS011;26582;47.524;19.012;2024-03-02T07:22:06;45.08;;;24.02;;
40863;SDS011;26582;47.524;19.012;2024-03-02T07:24:38;40.03;;;21.77;;
40863;SDS011;26582;47.524;19.012;2024-03-02T07:27:07;39.13;;;21.92;;
40863;SDS011;26582;47.524;19.012;2024-03-02T07:29:35;38.60;;;20.70;;
40863;SDS011;26582;47.524;19.012;2024-03-02T07:32:02;39.42;;;19.88;;
40863;SDS011;26582;47.524;19.012;2024-03-02T07:34:29;39.15;;;21.13;;
40863;SDS011;26582;47.524;19.012;2024-03-02T07:36:55;40.58;;;20.73;;
40863;SDS011;26582;47.524;19.012;2024-03-02T07:39:22;40.50;;;21.30;;
40863;SDS011;26582;47.524;19.012;2024-03-02T07:41:49;40.13;;;21.00;;
40863;SDS011;26582;47.524;19.012;2024-03-02T07:44:16;36.35;;;20.63;;
40863;SDS011;26582;47.524;19.012;2024-03-02T07:46:45;39.30;;;21.95;;
40863;SDS011;26582;47.524;19.012;2024-03-02T07:49:15;45.67;;;23.73;;
40863;SDS011;26582;47.524;19.012;2024-03-02T07:51:42;40.95;;;21.48;;
40863;SDS011;26582;47.524;19.012;2024-03-02T07:54:09;36.72;;;20.02;;
40863;SDS011;26582;47.524;19.012;2024-03-02T07:56:36;41.13;;;21.17;;
40863;SDS011;26582;47.524;19.012;2024-03-02T07:59:03;41.72;;;22.45;;
40863;SDS011;26582;47.524;19.012;2024-03-02T08:01:30;38.03;;;20.45;;
40863;SDS011;26582;47.524;19.012;2024-03-02T08:04:00;44.28;;;22.20;;
40863;SDS011;26582;47.524;19.012;2024-03-02T08:06:28;38.95;;;21.75;;
40863;SDS011;26582;47.524;19.012;2024-03-02T08:08:56;41.40;;;21.45;;
40863;SDS011;26582;47.524;19.012;2024-03-02T08:11:23;42.20;;;20.90;;
40863;SDS011;26582;47.524;19.012;2024-03-02T08:13:50;43.95;;;21.83;;
40863;SDS011;26582;47.524;19.012;2024-03-02T08:16:17;42.13;;;21.15;;
40863;SDS011;26582;47.524;19.012;2024-03-02T08:18:45;40.55;;;20.95;;
40863;SDS011;26582;47.524;19.012;2024-03-02T08:21:13;45.58;;;25.42;;
40863;SDS011;26582;47.524;19.012;2024-03-02T08:23:40;37.90;;;21.27;;
40863;SDS011;26582;47.524;19.012;2024-03-02T08:26:08;44.17;;;22.55;;
40863;SDS011;26582;47.524;19.012;2024-03-02T08:28:35;37.00;;;21.45;;
40863;SDS011;26582;47.524;19.012;2024-03-02T08:31:03;42.10;;;21.42;;
40863;SDS011;26582;47.524;19.012;2024-03-02T08:33:30;39.88;;;20.52;;
40863;SDS011;26582;47.524;19.012;2024-03-02T08:35:56;39.78;;;21.17;;
40863;SDS011;26582;47.524;19.012;2024-03-02T08:38:24;40.28;;;21.30;;
40863;SDS011;26582;47.524;19.012;2024-03-02T08:40:51;38.65;;;21.83;;
40863;SDS011;26582;47.524;19.012;2024-03-02T08:43:19;37.58;;;21.23;;
40863;SDS011;26582;47.524;19.012;2024-03-02T08:45:47;41.75;;;21.65;;
40863;SDS011;26582;47.524;19.012;2024-03-02T08:48:15;39.33;;;21.08;;
40863;SDS011;26582;47.524;19.012;2024-03-02T08:50:42;38.17;;;19.52;;
40863;SDS011;26582;47.524;19.012;2024-03-02T08:53:09;39.45;;;21.25;;
40863;SDS011;26582;47.524;19.012;2024-03-02T08:55:37;40.33;;;21.17;;
40863;SDS011;26582;47.524;19.012;2024-03-02T08:58:04;40.40;;;20.35;;
40863;SDS011;26582;47.524;19.012;2024-03-02T09:00:31;37.00;;;18.98;;
40863;SDS011;26582;47.524;19.012;2024-03-02T09:02:57;33.05;;;18.40;;
40863;SDS011;26582;47.524;19.012;2024-03-02T09:05:24;32.05;;;17.27;;
40863;SDS011;26582;47.524;19.012;2024-03-02T09:07:51;36.28;;;19.75;;
40863;SDS011;26582;47.524;19.012;2024-03-02T09:10:18;34.92;;;18.10;;
40863;SDS011;26582;47.524;19.012;2024-03-02T09:12:46;31.30;;;18.70;;
40863;SDS011;26582;47.524;19.012;2024-03-02T09:15:12;32.47;;;17.58;;
40863;SDS011;26582;47.524;19.012;2024-03-02T09:17:39;27.88;;;17.00;;
40863;SDS011;26582;47.524;19.012;2024-03-02T09:20:06;34.88;;;18.80;;
40863;SDS011;26582;47.524;19.012;2024-03-02T09:22:33;37.70;;;18.10;;
40863;SDS011;26582;47.524;19.012;2024-03-02T09:25:00;30.67;;;18.15;;
40863;SDS011;26582;47.524;19.012;2024-03-02T09:27:27;34.78;;;18.98;;
40863;SDS011;26582;47.524;19.012;2024-03-02T09:29:55;42.45;;;20.85;;
40863;SDS011;26582;47.524;19.012;2024-03-02T09:32:21;35.22;;;18.80;;
40863;SDS011;26582;47.524;19.012;2024-03-02T09:34:48;29.55;;;16.38;;
40863;SDS011;26582;47.524;19.012;2024-03-02T09:37:15;32.28;;;16.90;;
40863;SDS011;26582;47.524;19.012;2024-03-02T09:39:43;27.88;;;15.85;;
40863;SDS011;26582;47.524;19.012;2024-03-02T09:42:11;32.75;;;17.40;;
40863;SDS011;26582;47.524;19.012;2024-03-02T09:44:38;29.63;;;16.85;;
40863;SDS011;26582;47.524;19.012;2024-03-02T09:47:07;32.92;;;17.02;;
40863;SDS011;26582;47.524;19.012;2024-03-02T09:49:34;30.60;;;16.10;;
40863;SDS011;26582;47.524;19.012;2024-03-02T09:52:01;30.13;;;15.50;;
40863;SDS011;26582;47.524;19.012;2024-03-02T09:56:57;21.52;;;12.95;;
40863;SDS011;26582;47.524;19.012;2024-03-02T09:59:24;26.70;;;14.00;;
40863;SDS011;26582;47.524;19.012;2024-03-02T10:01:57;25.02;;;14.05;;
40863;SDS011;26582;47.524;19.012;2024-03-02T10:04:26;29.90;;;15.98;;
40863;SDS011;26582;47.524;19.012;2024-03-02T10:07:09;27.95;;;15.07;;
40863;SDS011;26582;47.524;19.012;2024-03-02T10:09:39;27.73;;;14.60;;
40863;SDS011;26582;47.524;19.012;2024-03-02T10:12:07;23.77;;;14.15;;
40863;SDS011;26582;47.524;19.012;2024-03-02T10:14:35;27.30;;;14.90;;
40863;SDS011;26582;47.524;19.012;2024-03-02T10:17:02;25.52;;;13.93;;
40863;SDS011;26582;47.524;19.012;2024-03-02T10:19:31;29.27;;;15.88;;
40863;SDS011;26582;47.524;19.012;2024-03-02T10:22:00;25.70;;;15.05;;
40863;SDS011;26582;47.524;19.012;2024-03-02T10:24:28;24.10;;;13.73;;
40863;SDS011;26582;47.524;19.012;2024-03-02T10:27:07;26.92;;;15.00;;
40863;SDS011;26582;47.524;19.012;2024-03-02T10:29:38;21.75;;;12.50;;
40863;SDS011;26582;47.524;19.012;2024-03-02T10:32:06;25.08;;;13.27;;
40863;SDS011;26582;47.524;19.012;2024-03-02T10:34:39;26.67;;;14.63;;
40863;SDS011;26582;47.524;19.012;2024-03-02T10:37:06;26.30;;;14.57;;
40863;SDS011;26582;47.524;19.012;2024-03-02T10:39:34;22.23;;;11.93;;
40863;SDS011;26582;47.524;19.012;2024-03-02T10:42:01;24.20;;;13.68;;
40863;SDS011;26582;47.524;19.012;2024-03-02T10:44:29;22.60;;;12.20;;
40863;SDS011;26582;47.524;19.012;2024-03-02T10:46:57;22.63;;;12.98;;
40863;SDS011;26582;47.524;19.012;2024-03-02T10:49:27;22.40;;;13.23;;
40863;SDS011;26582;47.524;19.012;2024-03-02T10:51:57;23.35;;;13.20;;
40863;SDS011;26582;47.524;19.012;2024-03-02T10:54:23;23.02;;;12.57;;
40863;SDS011;26582;47.524;19.012;2024-03-02T10:56:54;21.08;;;13.63;;
40863;SDS011;26582;47.524;19.012;2024-03-02T10:59:26;22.27;;;13.13;;
40863;SDS011;26582;47.524;19.012;2024-03-02T11:01:55;22.23;;;12.95;;
40863;SDS011;26582;47.524;19.012;2024-03-02T11:04:24;19.58;;;12.02;;
40863;SDS011;26582;47.524;19.012;2024-03-02T11:06:51;20.77;;;12.18;;
40863;SDS011;26582;47.524;19.012;2024-03-02T11:09:22;23.92;;;12.45;;
40863;SDS011;26582;47.524;19.012;2024-03-02T11:11:54;21.27;;;12.70;;
40863;SDS011;26582;47.524;19.012;2024-03-02T11:14:27;23.33;;;13.00;;
40863;SDS011;26582;47.524;19.012;2024-03-02T11:19:23;18.98;;;11.38;;
40863;SDS011;26582;47.524;19.012;2024-03-02T11:21:51;19.58;;;11.73;;
40863;SDS011;26582;47.524;19.012;2024-03-02T11:24:32;18.85;;;11.48;;
40863;SDS011;26582;47.524;19.012;2024-03-02T11:27:00;24.52;;;12.27;;
40863;SDS011;26582;47.524;19.012;2024-03-02T11:29:43;22.05;;;12.38;;
40863;SDS011;26582;47.524;19.012;2024-03-02T11:32:14;18.00;;;10.82;;
40863;SDS011;26582;47.524;19.012;2024-03-02T11:34:42;18.15;;;11.35;;
40863;SDS011;26582;47.524;19.012;2024-03-02T11:37:12;19.65;;;11.23;;
40863;SDS011;26582;47.524;19.012;2024-03-02T11:39:40;16.98;;;10.65;;
40863;SDS011;26582;47.524;19.012;2024-03-02T11:42:09;19.90;;;10.95;;
40863;SDS011;26582;47.524;19.012;2024-03-02T11:44:37;18.20;;;10.85;;
40863;SDS011;26582;47.524;19.012;2024-03-02T11:47:05;17.20;;;10.50;;
40863;SDS011;26582;47.524;19.012;2024-03-02T11:49:36;17.85;;;11.15;;
40863;SDS011;26582;47.524;19.012;2024-03-02T11:52:04;15.90;;;10.18;;
40863;SDS011;26582;47.524;19.012;2024-03-02T11:54:32;18.83;;;10.93;;
40863;SDS011;26582;47.524;19.012;2024-03-02T11:57:01;18.60;;;10.82;;
40863;SDS011;26582;47.524;19.012;2024-03-02T11:59:28;16.97;;;10.67;;
40863;SDS011;26582;47.524;19.012;2024-03-02T12:01:55;18.42;;;10.40;;
40863;SDS011;26582;47.524;19.012;2024-03-02T12:04:22;17.10;;;10.55;;
40863;SDS011;26582;47.524;19.012;2024-03-02T12:06:53;17.02;;;10.70;;
40863;SDS011;26582;47.524;19.012;2024-03-02T12:09:21;15.93;;;10.25;;
40863;SDS011;26582;47.524;19.012;2024-03-02T12:12:02;16.33;;;9.82;;
40863;SDS011;26582;47.524;19.012;2024-03-02T12:14:30;15.00;;;9.65;;
40863;SDS011;26582;47.524;19.012;2024-03-02T12:16:57;15.82;;;9.85;;
40863;SDS011;26582;47.524;19.012;2024-03-02T12:19:25;16.02;;;10.10;;
40863;SDS011;26582;47.524;19.012;2024-03-02T12:21:52;16.40;;;10.02;;
40863;SDS011;26582;47.524;19.012;2024-03-02T12:24:20;18.10;;;9.82;;
40863;SDS011;26582;47.524;19.012;2024-03-02T12:26:47;15.50;;;9.45;;
40863;SDS011;26582;47.524;19.012;2024-03-02T12:29:15;15.73;;;10.07;;
40863;SDS011;26582;47.524;19.012;2024-03-02T12:31:42;15.10;;;9.48;;
40863;SDS011;26582;47.524;19.012;2024-03-02T12:34:11;18.90;;;10.90;;
40863;SDS011;26582;47.524;19.012;2024-03-02T12:36:39;20.83;;;12.88;;
40863;SDS011;26582;47.524;19.012;2024-03-02T12:39:07;16.13;;;10.15;;
40863;SDS011;26582;47.524;19.012;2024-03-02T12:41:35;15.75;;;9.30;;
40863;SDS011;26582;47.524;19.012;2024-03-02T12:44:02;15.65;;;10.23;;
40863;SDS011;26582;47.524;19.012;2024-03-02T12:46:30;17.42;;;9.43;;
40863;SDS011;26582;47.524;19.012;2024-03-02T12:48:57;14.88;;;9.20;;
40863;SDS011;26582;47.524;19.012;2024-03-02T12:51:26;15.00;;;9.13;;
40863;SDS011;26582;47.524;19.012;2024-03-02T12:53:53;13.60;;;8.88;;
40863;SDS011;26582;47.524;19.012;2024-03-02T12:56:20;15.45;;;9.25;;
40863;SDS011;26582;47.524;19.012;2024-03-02T12:58:47;13.35;;;8.88;;
40863;SDS011;26582;47.524;19.012;2024-03-02T13:01:19;16.55;;;9.82;;
40863;SDS011;26582;47.524;19.012;2024-03-02T13:03:48;18.05;;;9.52;;
40863;SDS011;26582;47.524;19.012;2024-03-02T13:06:16;16.50;;;9.50;;
40863;SDS011;26582;47.524;19.012;2024-03-02T13:08:44;17.15;;;9.20;;
40863;SDS011;26582;47.524;19.012;2024-03-02T13:11:11;18.83;;;10.25;;
40863;SDS011;26582;47.524;19.012;2024-03-02T13:13:38;20.25;;;11.20;;
40863;SDS011;26582;47.524;19.012;2024-03-02T13:16:07;19.92;;;10.48;;
40863;SDS011;26582;47.524;19.012;2024-03-02T13:21:03;19.77;;;10.25;;
40863;SDS011;26582;47.524;19.012;2024-03-02T13:23:30;21.38;;;11.07;;
40863;SDS011;26582;47.524;19.012;2024-03-02T13:25:56;17.23;;;10.05;;
40863;SDS011;26582;47.524;19.012;2024-03-02T13:28:24;20.35;;;11.93;;
40863;SDS011;26582;47.524;19.012;2024-03-02T13:30:51;22.13;;;13.73;;
40863;SDS011;26582;47.524;19.012;2024-03-02T13:33:17;18.33;;;10.07;;
40863;SDS011;26582;47.524;19.012;2024-03-02T13:38:16;20.73;;;12.35;;
40863;SDS011;26582;47.524;19.012;2024-03-02T13:40:43;20.10;;;11.05;;
40863;SDS011;26582;47.524;19.012;2024-03-02T13:43:10;23.75;;;11.45;;
40863;SDS011;26582;47.524;19.012;2024-03-02T13:45:37;20.23;;;11.55;;
40863;SDS011;26582;47.524;19.012;2024-03-02T13:48:04;23.48;;;12.77;;
40863;SDS011;26582;47.524;19.012;2024-03-02T13:50:31;23.02;;;12.35;;
40863;SDS011;26582;47.524;19.012;2024-03-02T13:52:58;23.33;;;12.65;;
40863;SDS011;26582;47.524;19.012;2024-03-02T13:55:26;23.42;;;13.30;;
40863;SDS011;26582;47.524;19.012;2024-03-02T13:57:53;21.63;;;11.60;;
40863;SDS011;26582;47.524;19.012;2024-03-02T14:00:19;20.77;;;10.63;;
40863;SDS011;26582;47.524;19.012;2024-03-02T14:02:47;21.23;;;10.60;;
40863;SDS011;26582;47.524;19.012;2024-03-02T14:05:15;22.13;;;10.60;;
40863;SDS011;26582;47.524;19.012;2024-03-02T14:07:42;26.00;;;12.35;;
40863;SDS011;26582;47.524;19.012;2024-03-02T14:10:09;21.38;;;10.57;;
40863;SDS011;26582;47.524;19.012;2024-03-02T14:12:37;16.88;;;9.90;;
40863;SDS011;26582;47.524;19.012;2024-03-02T14:15:04;26.13;;;11.98;;
40863;SDS011;26582;47.524;19.012;2024-03-02T14:17:32;21.23;;;11.73;;
40863;SDS011;26582;47.524;19.012;2024-03-02T14:19:59;22.02;;;11.90;;
40863;SDS011;26582;47.524;19.012;2024-03-02T14:22:25;26.77;;;12.90;;
40863;SDS011;26582;47.524;19.012;2024-03-02T14:24:52;25.20;;;12.45;;
40863;SDS011;26582;47.524;19.012;2024-03-02T14:27:19;9.95;;;5.72;;